createdAt,value
2023-02-16T00:04:30.713Z,10.20
2023-02-16T00:09:33.522Z,7.83
2023-02-16T00:14:38.262Z,10.17
2023-02-16T00:19:42.670Z,11.03
2023-02-16T00:24:45.603Z,10.83
2023-02-16T00:29:48.488Z,9.20
2023-02-16T05:33:22.712Z,11.13
2023-02-16T05:38:26.583Z,11.10
2023-02-16T05:43:29.439Z,10.30
2023-02-16T05:48:32.290Z,8.60
2023-02-16T05:53:35.123Z,9.03
2023-02-16T05:58:38.208Z,10.97
2023-02-16T06:03:41.129Z,11.47
2023-02-16T06:08:44.016Z,9.30
2023-02-16T06:13:46.880Z,9.53
2023-02-16T06:18:49.760Z,10.17
2023-02-16T06:23:53.270Z,8.37
2023-02-16T06:28:56.474Z,8.77
2023-02-16T06:33:59.310Z,12.13
2023-02-16T06:39:02.256Z,11.37
2023-02-16T06:44:07.306Z,9.53
2023-02-16T06:49:15.381Z,9.80
2023-02-16T06:54:18.598Z,9.23
2023-02-16T06:59:21.441Z,9.33
2023-02-16T07:04:24.287Z,10.77
2023-02-16T07:09:27.260Z,10.97
2023-02-16T07:14:31.914Z,10.27
2023-02-16T07:19:34.736Z,9.97
2023-02-16T07:24:37.547Z,8.30
2023-02-16T07:29:40.576Z,11.67
2023-02-16T07:34:43.425Z,9.13
2023-02-16T07:39:46.329Z,11.27
2023-02-16T07:44:49.179Z,9.73
2023-02-16T07:49:52.060Z,9.97
2023-02-16T07:54:54.886Z,10.07
2023-02-16T07:59:57.878Z,9.90
2023-02-16T08:05:00.814Z,10.37
2023-02-16T08:10:03.635Z,9.53
2023-02-16T08:15:06.707Z,11.80
2023-02-16T08:20:10.060Z,9.77
2023-02-16T08:25:16.122Z,10.37
2023-02-16T08:30:20.567Z,10.43
2023-02-16T08:35:23.436Z,9.10
2023-02-16T08:40:26.719Z,10.87
2023-02-16T08:45:30.313Z,9.23
2023-02-16T08:50:33.204Z,10.10
2023-02-16T08:55:36.018Z,9.50
2023-02-16T09:00:38.969Z,10.47
2023-02-16T09:05:42.114Z,8.77
2023-02-16T09:10:45.206Z,9.63
2023-02-16T09:15:48.239Z,8.43
2023-02-16T09:20:51.738Z,8.57
2023-02-16T09:25:54.575Z,10.70
2023-02-16T09:30:57.621Z,9.27
2023-02-16T09:36:00.522Z,10.50
2023-02-16T09:41:22.799Z,7.13
2023-02-16T09:46:27.473Z,10.63
2023-02-16T09:51:41.138Z,10.30
2023-02-16T09:57:03.371Z,9.90
2023-02-16T10:02:25.140Z,9.20
2023-02-16T10:07:51.306Z,10.20
2023-02-16T10:13:09.348Z,9.67
2023-02-16T10:18:22.128Z,8.70
2023-02-16T10:23:51.296Z,9.33
2023-02-16T10:28:56.714Z,10.27
2023-02-16T10:34:06.895Z,9.73
2023-02-16T10:39:38.369Z,10.17
2023-02-16T10:44:46.207Z,10.47
2023-02-16T10:49:49.863Z,8.47
2023-02-16T10:54:52.755Z,9.27
2023-02-16T10:59:59.631Z,9.80
2023-02-16T11:05:04.913Z,8.87
2023-02-16T11:10:27.533Z,9.37
2023-02-16T11:15:30.582Z,10.77
2023-02-16T11:20:34.990Z,9.60
2023-02-16T11:25:38.015Z,9.10
2023-02-16T11:30:42.282Z,9.10
2023-02-16T11:35:46.069Z,9.03
2023-02-16T11:40:53.285Z,11.10
2023-02-16T11:46:03.323Z,10.23
2023-02-16T11:51:10.741Z,10.33
2023-02-16T11:56:24.330Z,11.20
2023-02-16T12:01:52.096Z,9.03
2023-02-16T12:07:16.494Z,10.47
2023-02-16T12:12:49.122Z,9.03
2023-02-16T12:18:03.990Z,9.90
2023-02-16T12:23:25.743Z,10.23
2023-02-16T12:28:43.130Z,11.30
2023-02-16T12:34:01.182Z,10.43
2023-02-16T12:39:34.324Z,9.97
2023-02-16T12:44:42.609Z,8.77
2023-02-16T12:49:55.622Z,9.80
2023-02-16T12:55:18.664Z,8.97
2023-02-16T13:00:35.688Z,8.57
2023-02-16T13:05:39.085Z,8.37
2023-02-16T13:11:03.912Z,9.00
2023-02-16T13:16:29.107Z,10.17
2023-02-16T13:21:51.321Z,8.97
2023-02-16T13:26:57.298Z,9.87
2023-02-16T13:32:25.616Z,10.77
2023-02-16T13:37:46.804Z,9.80
2023-02-16T13:42:57.506Z,9.33
2023-02-16T13:48:00.975Z,10.30
2023-02-16T13:53:21.029Z,9.67
2023-02-16T13:58:32.598Z,10.37
2023-02-16T14:03:39.327Z,9.40
2023-02-16T14:08:43.684Z,8.43
2023-02-16T14:13:48.745Z,9.27
2023-02-16T14:19:15.529Z,10.87
2023-02-16T14:24:35.754Z,10.03
2023-02-16T14:30:00.563Z,11.47
2023-02-16T14:35:14.624Z,10.50
2023-02-16T14:40:34.588Z,11.77
2023-02-16T14:45:58.998Z,11.13
2023-02-16T14:51:27.697Z,10.60
2023-02-16T14:56:45.635Z,10.43
2023-02-16T15:01:48.742Z,10.70
2023-02-16T15:06:52.512Z,11.80
2023-02-16T15:12:20.988Z,11.23
2023-02-16T15:17:23.783Z,12.73
2023-02-16T15:22:27.301Z,12.70
2023-02-16T15:27:32.965Z,12.17
2023-02-16T15:32:35.912Z,13.10
2023-02-16T15:37:40.484Z,12.83
2023-02-16T15:42:45.325Z,11.03
2023-02-16T15:47:48.894Z,12.77
2023-02-16T15:52:51.848Z,10.67
2023-02-16T15:57:56.099Z,12.53
2023-02-16T16:03:00.585Z,12.53
2023-02-16T16:08:04.345Z,12.37
2023-02-16T16:13:12.067Z,11.50
2023-02-16T16:18:38.950Z,11.70
2023-02-16T16:23:42.637Z,12.23
2023-02-16T16:28:45.767Z,9.47
2023-02-16T16:34:02.016Z,11.67
2023-02-16T16:39:17.186Z,11.33
2023-02-16T16:44:37.302Z,8.03
2023-02-16T16:49:54.311Z,10.57
2023-02-16T16:54:57.341Z,11.60
2023-02-16T17:00:00.252Z,11.63
2023-02-16T17:05:03.193Z,10.67
2023-02-16T17:10:06.739Z,11.00
2023-02-16T17:15:37.879Z,12.23
2023-02-16T17:20:40.748Z,11.00
2023-02-16T17:25:43.946Z,12.43
2023-02-16T17:30:47.081Z,10.87
2023-02-16T17:35:50.037Z,11.00
2023-02-16T17:40:55.118Z,13.07
2023-02-16T17:46:01.158Z,12.67
2023-02-16T17:51:04.221Z,12.40
2023-02-16T17:56:09.763Z,11.73
2023-02-16T18:01:17.405Z,12.67
2023-02-16T18:06:28.887Z,13.60
2023-02-16T18:11:32.239Z,14.07
2023-02-16T18:16:35.118Z,12.83
2023-02-16T18:21:37.945Z,13.13
2023-02-16T18:26:40.820Z,12.77
2023-02-16T18:31:44.385Z,13.33
2023-02-16T18:36:47.246Z,13.23
2023-02-16T18:41:50.369Z,11.97
2023-02-16T18:46:53.412Z,11.97
2023-02-16T18:51:57.371Z,11.27
2023-02-16T18:57:00.492Z,11.87
2023-02-16T19:02:03.687Z,12.67
2023-02-16T19:07:07.301Z,13.20
2023-02-16T19:12:10.387Z,13.23
2023-02-16T19:17:13.258Z,10.53
2023-02-16T19:22:16.126Z,13.03
2023-02-16T19:27:19.228Z,12.33
2023-02-16T19:32:22.354Z,10.67
2023-02-16T19:37:25.339Z,12.43
2023-02-16T19:42:28.257Z,12.60
2023-02-16T19:47:31.310Z,11.47
2023-02-16T19:52:34.448Z,12.97
2023-02-16T19:57:37.529Z,11.67
2023-02-16T20:02:40.577Z,11.63
2023-02-16T20:07:43.594Z,13.37
2023-02-16T20:12:46.721Z,12.50
2023-02-16T20:17:49.833Z,13.13
2023-02-16T20:22:52.699Z,12.43
2023-02-16T20:27:57.363Z,14.73
2023-02-16T20:33:00.524Z,12.80
2023-02-16T20:38:03.756Z,15.43
2023-02-16T20:43:06.650Z,12.50
2023-02-16T20:48:10.617Z,12.97
2023-02-16T20:53:13.682Z,11.87
2023-02-16T20:58:17.328Z,13.87
2023-02-16T21:03:20.142Z,13.30
2023-02-16T21:08:22.982Z,13.93
2023-02-16T21:13:25.839Z,13.93
2023-02-16T21:18:28.685Z,12.13
2023-02-16T21:23:31.786Z,14.33
2023-02-16T21:28:34.662Z,11.93
2023-02-16T21:33:37.810Z,14.70
2023-02-16T21:38:41.999Z,14.93
2023-02-16T21:43:44.858Z,13.77
2023-02-16T21:48:47.965Z,13.00
2023-02-16T21:53:51.424Z,12.53
2023-02-16T21:58:54.396Z,12.87
2023-02-16T22:03:59.505Z,17.13
2023-02-16T22:09:07.314Z,13.13
2023-02-16T22:14:10.613Z,15.60
2023-02-16T22:19:15.577Z,11.93
2023-02-16T22:24:19.162Z,14.10
2023-02-16T22:29:22.009Z,10.93
2023-02-16T22:34:24.860Z,11.80
2023-02-16T22:39:28.088Z,12.90
2023-02-16T22:44:31.376Z,12.47
2023-02-16T22:49:34.274Z,11.70
2023-02-16T22:54:37.811Z,11.30
2023-02-16T22:59:40.645Z,11.80
2023-02-16T23:04:43.559Z,11.53
2023-02-16T23:09:46.442Z,10.73
2023-02-16T23:14:49.379Z,12.20
2023-02-16T23:19:52.221Z,11.67
2023-02-16T23:25:15.035Z,11.47
2023-02-16T23:30:17.919Z,16.03
2023-02-16T23:35:20.970Z,11.87
2023-02-16T23:40:23.825Z,12.70
2023-02-16T23:45:26.683Z,11.93
2023-02-16T23:50:29.774Z,11.37
2023-02-16T23:55:32.627Z,13.10
